Station: Cleve

  Atmospheric Gas Attenuation - ITU Rec 676-11   --------------- db/100km ---------------
Date Time Temp RH % AH g/m3 Dew Point Wind Direction Speed kph Gust kph Barometer mB Rainfall Since 9am 24GHz 47GHz 76GHz 122GHz 134GHz 241GHz
16 09:00 11.9 89 9.43 10.2 0 1025.2 0 21.4 28.3 44.8 117.6 113.4 390.5
14 09:00 11.1 68 6.85 5.5 7 1027.8 0.2 16.0 24.4 34.7 90.7 79.7 272.4
13 09:00 10.9 95 9.45 10.1 0 1028.3 0.4 21.5 28.8 45.6 119.8 115.4 397.5
12 09:00 8 91 7.53 6.7 4 1022.5 8 17.6 26.2 38.7 101.3 91.8 314.5
11 09:00 1013.1
10 09:00 11.5 64 6.61 5 11 1021 0 15.4 23.7 33.4 87.1 75.7 258.7
09 09:00 10 50 4.7 0.2 22 1022.8 0 11.4 21.2 26.8 69.6 53.5 180.4
08 09:00 6.6 77 5.82 2.8 7 1027 0 13.9 23.9 32.5 84.7 70.5 239.5
07 09:00 7.8 84 6.86 5.3 4 1031.5 0.2 16.1 25.5 36.4 95.0 83.5 285.4
06 09:00 9.6 83 7.61 6.8 7 1033.2 0.2 17.7 26.3 38.7 101.2 91.8 314.7
05 09:00 9.8 92 8.54 8.6 0 1032.6 0.2 19.6 27.8 42.5 111.4 104.5 358.9
04 09:00 8.5 99 8.46 8.3 0 1032.9 0.4 19.5 28.0 42.9 112.4 105.1 361.1
03 09:00 10 95 8.93 9.2 19 1026.2 1 20.5 28.1 43.8 114.9 109.1 375.4
02 09:00 8.9 81 7.1 5.9 19 1019 3 16.6 25.1 36.3 95.1 84.7 289.7
01 09:00 17 39 5.64 3 15 1010.5 0 13.2 20.5 27.4 71.4 58.9 200.3
30 09:00 9.9 45 4.2 -1.3 1014.3 0.6 10.4 20.2 24.8 64.3 47.3 158.5
29 09:00 7.5 60 4.8 0.2 0 1023.5 0 11.7 22.0 28.1 72.9 56.5 190.5
28 09:00 10.1 50 4.73 0.3 0 1027.8 0 11.5 21.4 27.1 70.2 54.0 182.2
27 09:00 10 56 5.26 1.7 7 1026.8 0 12.6 22.2 29.0 75.5 60.5 204.9
26 09:00 10 87 8.18 7.9 11 1026.9 0.4 18.9 26.9 40.6 106.4 98.7 338.8
25 09:00 12 99 10.55 11.8 11 1022.9 0 23.9 30.2 49.5 130.3 129.1 445.3
24 09:00 8.2 84 7.04 5.6 11 1020.9 0 16.5 25.2 36.5 95.5 84.8 289.9
23 09:00 10 84 7.9 7.5 4 1023.3 0.2 18.3 26.2 39.3 102.9 94.5 324.4
22 09:00 10.2 91 8.66 8.8 11 1021.6 0.2 19.9 27.4 42.3 111.0 104.7 359.8
21 09:00 9.9 93 8.69 8.9 15 1017.4 3 20.0 27.4 42.4 111.3 105.1 361.4
20 09:00 10.5 92 8.92 9.3 22 1018 6 20.4 27.6 43.1 113.1 107.6 370.1
19 09:00 14.6 33 4.13 -1.5 22 1022.7 0 10.1 19.4 23.5 60.6 44.2 148.1
18 09:00 13 55 6.24 4.3 30 1026.1 0 14.6 22.9 31.6 82.2 70.1 238.9
17 09:00 8.8 95 8.27 8 0 1031.9 0.2 19.1 27.6 41.9 109.6 101.9 349.9
16 09:00 12.8 91 10.19 11.3 11 1026.9 0.8 23.0 29.4 47.6 125.2 122.9 424.0
15 09:00 12.5 83 9.13 9.8 15 1023.9 0 20.8 27.6 43.1 113.2 108.2 372.5
14 09:00 11.2 82 8.31 8.2 22 1019.4 6 19.1 26.4 40.2 105.4 98.3 337.8
13 09:00 14 54 6.51 4.9 37 1006.9 0.2 15.1 22.4 31.4 82.2 71.3 243.5
12 09:00 12.4 48 5.25 1.8 7 1018.6 0 12.5 21.3 27.9 72.5 58.2 197.1
11 09:00 8.8 58 5.05 1 7 1024.6 0 12.2 22.1 28.6 74.3 58.7 198.5
10 09:00 9 54 4.76 0.3 0 1027.2 0 11.6 21.7 27.6 71.5 55.1 185.9
09 09:00 8 60 4.96 0.8 7 1029.6 0 12.1 22.3 28.7 74.6 58.4 197.4
08 09:00 6.9 78 6.01 3.4 1031.1 0.2 14.3 24.3 33.3 86.8 73.0 248.3
07 09:00 10 99 9.3 9.8 0 1027.3 2 21.3 28.8 45.5 119.3 114.5 394.3
06 09:00 10 79 7.43 6.6 1026.6 0 17.3 25.6 37.5 98.1 88.4 302.9
05 09:00 10 69 6.49 4.7 4 1029.9 0.2 15.2 24.2 33.9 88.3 76.2 260.2
04 09:00 9.2 84 7.5 6.6 1032.9 0.4 17.4 26.2 38.5 100.5 90.8 311.0
03 09:00 12 97 10.34 11.6 4 1032.8 1 23.4 30.2 49.1 129.0 127.0 438.0
02 09:00 12 94 10.02 11 7 1026.5 1 22.7 29.4 47.4 124.5 121.7 419.7
31 09:00 10 87 8.18 7.9 11 1016.3 1 18.9 26.4 40.1 105.3 97.8 335.9
28 09:00 11.8 84 8.84 9.2 11 1023.7 2 20.2 27.3 42.3 110.9 105.2 361.7
27 09:00 12.4 79 8.63 8.8 15 1019.7 19.7 26.6 40.9 107.3 101.1 347.8
25 09:00 10 82 7.71 7.1 11 1024.3 0.2 17.9 26.0 38.5 100.9 92.0 315.6
24 09:00 11.5 76 7.85 7.4 11 1026.9 3 18.1 25.9 38.5 100.8 92.3 316.8
23 09:00 11 93 9.31 10 4 1024.6 2 21.2 28.4 44.8 117.6 112.9 388.9
22 09:00 10.9 76 7.56 6.9 11 1026.3 0.2 17.5 25.5 37.6 98.3 89.1 305.5
21 09:00 9 80 7.06 5.7 0 1025.3 2 16.5 25.2 36.4 95.1 84.5 289.0
20 09:00 1013.1
19 09:00 19 23 3.75 -2.5 26 1017 0 9.2 17.9 20.9 54.0 37.7 126.0
18 09:00 14 57 6.88 5.6 4 1024.7 0 15.9 23.6 33.5 87.5 77.0 263.3
17 09:00 13 51 5.78 3.2 0 1029.4 0 13.6 22.3 30.0 78.0 64.6 219.8
16 09:00 11.4 46 4.72 0.3 11 1028.1 0 11.4 21.1 26.6 69.0 53.1 178.9
15 09:00 11.2 66 6.69 5.1 0 1029.5 0 15.6 24.2 34.1 89.0 77.6 265.2
14 09:00 1013.1
13 09:00 10 92 8.65 8.8 0 1028.1 0.4 19.9 27.7 42.7 111.9 105.3 362.1
12 09:00 14.4 42 5.19 1.9 26 1023.5 0 12.3 20.9 27.2 70.5 56.3 190.7
11 09:00 12.2 68 7.34 6.6 7 1029.2 0.1 17.0 24.9 36.2 94.7 85.0 291.1
10 09:00 12 77 8.21 8.2 4 1028.5 0.2 18.8 26.4 39.8 104.2 96.7 332.1
09 09:00 10.8 72 7.12 5.9 19 1019 4 16.6 24.6 35.6 93.0 82.9 283.7
08 09:00 13.1 92 10.5 11.8 11 1014.9 1 23.7 29.4 48.2 126.9 125.7 433.8
07 09:00 16.9 61 8.77 9.5 33 1011.2 0 19.8 25.2 38.8 102.0 96.6 332.5
06 09:00 14.4 32 3.96 -1.8 37 1018.7 0 9.7 19.1 22.8 59.0 42.2 141.4
05 09:00 12.9 56 6.31 4.4 15 1026.6 0 14.7 23.0 31.9 83.1 71.0 242.3
04 09:00 13 67 7.6 7 4 1029 0.4 17.5 25.1 36.9 96.4 87.5 299.9
03 09:00 12 93 9.91 10.9 4 1027.6 1 22.5 29.2 46.9 123.3 120.3 414.5
02 09:00 12.5 94 10.34 11.6 15 1020.8 3 23.4 29.5 48.2 126.7 125.0 431.1
01 09:00 11 87 8.71 9 22 1021.2 2 20.0 27.2 42.1 110.3 104.2 358.4
30 09:00 9.5 80 7.28 6.3 11 1018.6 6 17.0 25.2 36.8 96.3 86.4 295.8
29 09:00 12.2 90 9.71 10.7 4 1009.3 6 22.1 28.1 45.1 118.6 115.4 397.7
28 09:00 17.2 64 9.37 10.3 26 1013.9 0.2 21.1 26.2 41.2 108.1 104.1 358.9
27 09:00 13.5 87 10.18 11.4 0 1023.8 0.4 23.0 29.0 47.0 123.6 121.4 418.7
26 09:00 16.2 96 13.24 15.5 7 1021 10 29.4 33.4 58.6 154.6 160.6 556.1
25 09:00 22.6 43 8.64 9.5 11 1016.2 0.2 19.3 23.7 35.9 94.2 88.7 305.5
24 09:00 15.1 93 12 14 7 1021.6 0.6 26.8 31.6 53.9 141.9 144.5 499.8
23 09:00 16.4 90 12.56 14.7 0 1018.4 4 27.9 32.0 55.3 145.7 149.9 518.6
22 09:00 1022.3
21 09:00 18.9 52 8.42 9 37 1016.9 0 19.0 24.3 36.8 96.5 90.3 310.6
20 09:00 16.5 79 11.09 12.9 7 1014.7 0.2 24.8 29.2 48.6 128.0 128.3 443.5
19 09:00 15 73 9.36 10.3 19 1013.4 0 21.2 26.8 42.3 111.0 106.9 368.5
18 09:00 14.5 83 10.32 11.7 0 1019.4 0 23.2 28.8 46.8 123.1 121.3 418.7
17 09:00 14.4 78 9.64 10.6 11 1021.6 0 21.8 27.7 44.1 115.9 112.3 387.1
16 09:00 17.5 80 11.93 14 11 1017.1 0 26.5 30.4 51.7 136.1 138.6 479.4
15 09:00 23.4 20 4.21 -0.8 46 1014.9 0 10.0 17.5 21.2 54.7 40.2 135.2
14 09:00 21.9 26 5.02 1.8 22 1020.3 0 11.7 19.0 24.2 62.7 49.4 167.5
13 09:00 15 63 8.08 8.1 4 1019.2 0 18.4 24.9 37.4 98.0 90.7 311.5
12 09:00 15 58 7.44 6.9 7 1022.7 0 17.1 24.1 35.1 91.8 82.8 283.9
11 09:00 15.8 66 8.88 9.5 30 1018.9 0 20.1 26.0 40.2 105.4 100.0 344.3
10 09:00 20 40 6.91 6 22 1019.3 0 15.7 21.9 31.0 81.0 71.4 244.6
09 09:00 16.5 83 11.65 13.7 7 1024.8 0.2 25.9 30.6 51.5 135.6 137.2 474.5
08 09:00 15.8 76 10.23 11.6 15 1024 0.8 22.9 28.4 45.9 120.6 118.5 408.9
07 09:00 16 90 12.26 14.3 7 1023.6 0.4 27.3 31.8 54.5 143.5 146.8 508.0
06 09:00 14.6 90 11.26 13 4 1023.1 0.2 25.2 30.5 51.0 134.2 134.9 466.0
05 09:00 14 88 10.61 12 11 1018.6 0.6 23.9 29.4 48.3 127.1 126.1 435.4
04 09:00 12 82 8.74 9 7 1012.3 10 20.0 26.6 41.2 108.3 102.5 352.7
03 09:00 18 54 8.29 8.6 26 1003.5 0 18.7 23.9 36.2 95.0 88.7 305.1

Last Refresh: 17-Jul-2020 02:34:06

Most of the information presented on this site is sourced from the Bureau of Meteorology.  Copyright in all material sourced from the Bureau of Meteorology resides with the Commonwealth of Australia.